Time;durP1;ratioP1;P1;durP2;ratioP2;P2;SDS_P1;SDS_P2;PMS_P1;PMS_P2;Temp;Humidity;BMP_temperature;BMP_pressure;BME280_temperature;BME280_humidity;BME280_pressure;Samples;Min_cycle;Max_cycle;Signal;HPM_P1;HPM_P2
2024/01/19 00:02:01;;;;;;;5.18;4.50;;;2.40;99.90;;;;;;5031835;28;20231;-46
2024/01/19 00:04:29;;;;;;;5.30;4.30;;;2.40;99.90;;;;;;5012074;28;20185;-44
2024/01/19 00:06:57;;;;;;;6.28;4.05;;;2.40;99.90;;;;;;5028660;28;20215;-45
2024/01/19 00:09:27;;;;;;;5.20;3.78;;;2.40;99.90;;;;;;5042976;28;20220;-45
2024/01/19 00:11:55;;;;;;;6.15;4.57;;;2.40;99.90;;;;;;5031110;28;20209;-50
2024/01/19 00:14:24;;;;;;;6.13;3.88;;;2.40;99.90;;;;;;5035467;28;20249;-49
2024/01/19 00:16:52;;;;;;;6.43;4.60;;;2.40;99.90;;;;;;5032106;28;20277;-47
2024/01/19 00:19:20;;;;;;;5.63;4.88;;;2.40;99.90;;;;;;5032522;28;20260;-46
2024/01/19 00:21:49;;;;;;;5.65;3.20;;;2.40;99.90;;;;;;5028769;28;20245;-46
2024/01/19 00:24:18;;;;;;;5.53;3.60;;;2.40;99.90;;;;;;5037265;28;20213;-46
2024/01/19 00:26:48;;;;;;;5.88;4.35;;;2.40;99.90;;;;;;5033244;28;20197;-47
2024/01/19 00:29:17;;;;;;;6.40;4.63;;;2.40;99.90;;;;;;5039832;28;20271;-44
2024/01/19 00:31:47;;;;;;;5.57;4.25;;;2.40;99.90;;;;;;5037579;28;20224;-44
2024/01/19 00:34:16;;;;;;;6.15;4.13;;;2.40;99.90;;;;;;5032272;28;20225;-46
2024/01/19 00:36:45;;;;;;;5.07;3.47;;;2.40;99.90;;;;;;5035853;28;20206;-45
2024/01/19 00:39:14;;;;;;;6.10;3.85;;;2.40;99.90;;;;;;5044660;28;20213;-45
2024/01/19 00:41:43;;;;;;;5.88;3.15;;;2.30;99.90;;;;;;5038557;28;20235;-48
2024/01/19 00:44:13;;;;;;;5.32;4.40;;;2.40;99.90;;;;;;5048930;28;20236;-44
2024/01/19 00:46:41;;;;;;;4.90;3.83;;;2.40;99.90;;;;;;5037967;28;20201;-44
2024/01/19 00:49:10;;;;;;;5.43;3.88;;;2.40;99.90;;;;;;5037632;28;20218;-46
2024/01/19 00:51:38;;;;;;;5.88;3.97;;;2.30;99.90;;;;;;5039007;28;20299;-44
2024/01/19 00:54:07;;;;;;;4.22;3.78;;;2.40;99.90;;;;;;5033365;28;20722;-46
2024/01/19 00:56:35;;;;;;;5.78;4.35;;;2.30;99.90;;;;;;5039005;28;20196;-45
2024/01/19 00:59:04;;;;;;;5.50;4.32;;;2.40;99.90;;;;;;5038747;28;20223;-44
2024/01/19 01:01:33;;;;;;;4.93;4.18;;;2.40;99.90;;;;;;5044247;28;20217;-44
2024/01/19 01:04:02;;;;;;;5.25;4.25;;;2.30;99.90;;;;;;5033988;28;20722;-45
2024/01/19 01:06:30;;;;;;;5.00;4.05;;;2.30;99.90;;;;;;5040971;28;20261;-45
2024/01/19 01:09:00;;;;;;;5.13;3.72;;;2.40;99.90;;;;;;5035513;28;20229;-50
2024/01/19 01:11:28;;;;;;;5.55;4.35;;;2.30;99.90;;;;;;5048249;28;20235;-46
2024/01/19 01:13:57;;;;;;;6.93;3.88;;;2.30;99.90;;;;;;5037174;28;20260;-46
2024/01/19 01:16:26;;;;;;;4.90;3.47;;;2.30;99.90;;;;;;5035609;28;20204;-45
2024/01/19 01:18:57;;;;;;;5.53;3.83;;;2.30;99.90;;;;;;5044777;28;20224;-47
2024/01/19 01:21:26;;;;;;;4.93;4.03;;;2.40;99.90;;;;;;5038862;28;20210;-48
2024/01/19 01:23:54;;;;;;;6.22;4.20;;;2.40;99.90;;;;;;5031604;28;20319;-46
2024/01/19 01:26:22;;;;;;;4.55;3.60;;;2.30;99.90;;;;;;5032395;28;20189;-44
2024/01/19 01:28:51;;;;;;;6.53;4.30;;;2.30;99.90;;;;;;5034766;28;20224;-46
2024/01/19 01:31:22;;;;;;;5.05;3.60;;;2.30;99.90;;;;;;5041993;28;20211;-45
2024/01/19 01:33:50;;;;;;;5.53;4.00;;;2.30;99.90;;;;;;5043927;28;20225;-45
2024/01/19 01:36:20;;;;;;;5.10;3.53;;;2.30;99.90;;;;;;5033239;28;20579;-44
2024/01/19 01:38:48;;;;;;;5.78;3.83;;;2.30;99.90;;;;;;5041642;28;20630;-46
2024/01/19 01:41:16;;;;;;;5.55;3.97;;;2.30;99.90;;;;;;5040032;28;20263;-47
2024/01/19 01:43:44;;;;;;;5.53;3.50;;;2.30;99.90;;;;;;5041236;28;20253;-46
2024/01/19 01:46:13;;;;;;;5.35;3.45;;;2.30;99.90;;;;;;5052371;28;20216;-45
2024/01/19 01:48:41;;;;;;;6.82;4.25;;;2.30;99.90;;;;;;5041237;28;20293;-45
2024/01/19 01:51:11;;;;;;;7.18;4.68;;;2.30;99.90;;;;;;5048220;28;20213;-45
2024/01/19 01:53:41;;;;;;;5.57;4.00;;;2.30;99.90;;;;;;5041785;28;20214;-45
2024/01/19 01:56:10;;;;;;;6.60;3.55;;;2.30;99.90;;;;;;5051224;28;20231;-45
2024/01/19 01:58:38;;;;;;;4.78;3.40;;;2.30;99.90;;;;;;5048393;28;20220;-45
2024/01/19 02:01:07;;;;;;;5.25;3.70;;;2.30;99.90;;;;;;5048539;28;20232;-46
2024/01/19 02:03:37;;;;;;;5.60;3.70;;;2.30;99.90;;;;;;5032444;28;20307;-45
2024/01/19 02:06:06;;;;;;;5.25;3.65;;;2.30;99.90;;;;;;5033243;28;20200;-46
2024/01/19 02:08:34;;;;;;;6.45;4.03;;;2.30;99.90;;;;;;5035394;28;20220;-46
2024/01/19 02:11:04;;;;;;;6.03;3.97;;;2.30;99.90;;;;;;5040183;28;20630;-45
2024/01/19 02:13:32;;;;;;;5.50;4.22;;;2.30;99.90;;;;;;5036044;28;20691;-47
2024/01/19 02:16:00;;;;;;;5.10;3.55;;;2.30;99.90;;;;;;5034367;28;20212;-46
2024/01/19 02:18:28;;;;;;;6.53;4.30;;;2.30;99.90;;;;;;5030434;28;20209;-45
2024/01/19 02:20:57;;;;;;;5.53;4.22;;;2.30;99.90;;;;;;5036145;28;20578;-44
2024/01/19 02:23:28;;;;;;;6.07;4.22;;;2.30;99.90;;;;;;5031255;28;20315;-46
2024/01/19 02:25:57;;;;;;;5.70;3.55;;;2.30;99.90;;;;;;5031307;28;20201;-48
2024/01/19 02:28:26;;;;;;;6.07;4.97;;;2.30;99.90;;;;;;5031581;28;20217;-46
2024/01/19 02:30:54;;;;;;;6.82;4.70;;;2.30;99.90;;;;;;5037383;28;20225;-47
2024/01/19 02:33:23;;;;;;;5.90;4.28;;;2.30;99.90;;;;;;5033686;28;20266;-45
2024/01/19 02:35:52;;;;;;;5.72;3.40;;;2.30;99.90;;;;;;5032478;28;20185;-46
2024/01/19 02:38:21;;;;;;;5.25;3.55;;;2.30;99.90;;;;;;5037393;28;20276;-46
2024/01/19 02:40:49;;;;;;;5.75;3.80;;;2.30;99.90;;;;;;5037532;28;20209;-48
2024/01/19 02:43:18;;;;;;;5.65;3.65;;;2.30;99.90;;;;;;5036698;28;20278;-46
2024/01/19 02:45:46;;;;;;;6.20;3.70;;;2.30;99.90;;;;;;5034978;28;20212;-47
2024/01/19 02:48:15;;;;;;;4.95;3.55;;;2.30;99.90;;;;;;5031844;28;20359;-46
2024/01/19 02:50:44;;;;;;;6.22;4.70;;;2.30;99.90;;;;;;5033237;28;20284;-46
2024/01/19 02:53:12;;;;;;;4.30;3.25;;;2.30;99.90;;;;;;5033688;28;20259;-45
2024/01/19 02:55:40;;;;;;;6.35;4.07;;;2.30;99.90;;;;;;5031964;28;20228;-48
2024/01/19 02:58:08;;;;;;;5.43;3.70;;;2.30;99.90;;;;;;5039445;28;20605;-47
2024/01/19 03:00:39;;;;;;;5.75;3.90;;;2.30;99.90;;;;;;5041522;28;20211;-47
2024/01/19 03:03:07;;;;;;;9.05;6.10;;;2.30;99.90;;;;;;5035947;28;20659;-45
2024/01/19 03:05:35;;;;;;;5.32;3.38;;;2.30;99.90;;;;;;5037562;28;20658;-46
2024/01/19 03:08:04;;;;;;;6.32;3.40;;;2.30;99.90;;;;;;5039385;28;20304;-45
2024/01/19 03:10:33;;;;;;;5.32;3.45;;;2.30;99.90;;;;;;5033089;28;20537;-47
2024/01/19 03:13:02;;;;;;;7.47;4.85;;;2.30;99.90;;;;;;5019306;28;20312;-44
2024/01/19 03:15:31;;;;;;;6.43;3.65;;;2.30;99.90;;;;;;5034532;28;20209;-47
2024/01/19 03:18:00;;;;;;;6.30;4.90;;;2.30;99.90;;;;;;5031510;28;20221;-48
2024/01/19 03:20:28;;;;;;;6.28;4.07;;;2.30;99.90;;;;;;5043031;28;20199;-45
2024/01/19 03:22:57;;;;;;;6.32;3.85;;;2.20;99.90;;;;;;5041003;28;20604;-45
2024/01/19 03:25:25;;;;;;;6.43;4.32;;;2.30;99.90;;;;;;5039364;28;20284;-47
2024/01/19 03:27:55;;;;;;;5.53;3.58;;;2.30;99.90;;;;;;5034437;28;20236;-46
2024/01/19 03:30:23;;;;;;;4.47;3.13;;;2.30;99.90;;;;;;5038919;28;20557;-45
2024/01/19 03:32:52;;;;;;;5.28;3.90;;;2.30;99.90;;;;;;5037377;28;20707;-45
2024/01/19 03:35:22;;;;;;;5.70;3.50;;;2.30;99.90;;;;;;5038979;28;20297;-45
2024/01/19 03:37:51;;;;;;;5.05;3.67;;;2.30;99.90;;;;;;5038400;28;20224;-46
2024/01/19 03:40:20;;;;;;;3.97;3.17;;;2.30;99.90;;;;;;5045659;28;20204;-47
2024/01/19 03:42:48;;;;;;;8.77;4.53;;;2.30;99.90;;;;;;5042400;28;20256;-45
2024/01/19 03:45:17;;;;;;;4.63;4.03;;;2.30;99.90;;;;;;5035716;28;20191;-47
2024/01/19 03:47:47;;;;;;;5.70;3.47;;;2.30;99.90;;;;;;5035875;28;20228;-45
2024/01/19 03:50:15;;;;;;;6.93;3.90;;;2.30;99.90;;;;;;5032661;28;20258;-47
2024/01/19 03:52:45;;;;;;;4.88;3.45;;;2.30;99.90;;;;;;5036614;28;20648;-46
2024/01/19 03:55:16;;;;;;;7.28;4.72;;;2.30;99.90;;;;;;5040149;28;20197;-45
2024/01/19 03:57:46;;;;;;;6.78;4.18;;;2.30;99.90;;;;;;5031116;28;20320;-45
2024/01/19 04:00:14;;;;;;;5.00;3.58;;;2.30;99.90;;;;;;5040149;28;20246;-45
2024/01/19 04:02:43;;;;;;;5.20;4.00;;;2.30;99.90;;;;;;5039504;28;20220;-44
2024/01/19 04:05:11;;;;;;;5.93;3.90;;;2.30;99.90;;;;;;5044530;28;20207;-45
2024/01/19 04:07:39;;;;;;;6.85;4.28;;;2.30;99.90;;;;;;5045341;28;20220;-45
2024/01/19 04:10:10;;;;;;;4.97;3.28;;;2.30;99.90;;;;;;5031391;28;20638;-45
2024/01/19 04:12:38;;;;;;;6.07;3.92;;;2.30;99.90;;;;;;5040695;28;20593;-47
2024/01/19 04:15:08;;;;;;;4.82;3.72;;;2.30;99.90;;;;;;5045244;28;20192;-45
2024/01/19 04:17:36;;;;;;;5.28;4.05;;;2.30;99.90;;;;;;5042338;28;20222;-46
2024/01/19 04:20:06;;;;;;;7.40;4.38;;;2.30;99.90;;;;;;5044402;28;20203;-45
2024/01/19 04:22:34;;;;;;;5.30;3.50;;;2.30;99.90;;;;;;5042142;28;20678;-44
2024/01/19 04:25:03;;;;;;;5.68;3.38;;;2.30;99.90;;;;;;5038966;28;20626;-44
2024/01/19 04:27:33;;;;;;;7.03;3.22;;;2.30;99.90;;;;;;5042209;28;20236;-45
2024/01/19 04:30:01;;;;;;;4.40;3.28;;;2.30;99.90;;;;;;5039141;28;20223;-46
2024/01/19 04:32:29;;;;;;;5.80;3.15;;;2.30;99.90;;;;;;5033848;28;20227;-46
2024/01/19 04:34:58;;;;;;;6.18;4.13;;;2.30;99.90;;;;;;5034360;28;20216;-47
2024/01/19 04:37:27;;;;;;;5.50;3.42;;;2.30;99.90;;;;;;5043425;28;20220;-46
2024/01/19 04:39:56;;;;;;;9.38;3.67;;;2.30;99.90;;;;;;5048934;28;20209;-47
2024/01/19 04:42:25;;;;;;;5.35;3.45;;;2.30;99.90;;;;;;5039366;28;20298;-46
2024/01/19 04:44:55;;;;;;;5.35;3.55;;;2.30;99.90;;;;;;5044694;28;20204;-46
2024/01/19 04:47:23;;;;;;;5.20;3.55;;;2.30;99.90;;;;;;5040632;28;20227;-46
2024/01/19 04:49:51;;;;;;;4.60;3.13;;;2.30;99.90;;;;;;5035025;28;20683;-44
2024/01/19 04:52:20;;;;;;;5.15;2.90;;;2.30;99.90;;;;;;5035134;28;20729;-46
2024/01/19 04:54:48;;;;;;;5.70;3.08;;;2.30;99.90;;;;;;5035250;28;20202;-44
2024/01/19 04:57:16;;;;;;;4.25;2.80;;;2.30;99.90;;;;;;5040223;28;20204;-45
2024/01/19 04:59:44;;;;;;;3.72;3.00;;;2.30;99.90;;;;;;5036995;28;20254;-44
2024/01/19 05:02:14;;;;;;;4.82;2.55;;;2.30;99.90;;;;;;5039979;28;20725;-43
2024/01/19 05:04:46;;;;;;;3.58;2.60;;;2.30;99.90;;;;;;5040773;28;20279;-46
2024/01/19 05:07:15;;;;;;;4.05;2.72;;;2.30;99.90;;;;;;5045875;28;20626;-46
2024/01/19 05:09:45;;;;;;;3.72;3.30;;;2.30;99.90;;;;;;5044594;28;20634;-45
2024/01/19 05:12:13;;;;;;;4.65;3.45;;;2.30;99.90;;;;;;5040460;28;20765;-47
2024/01/19 05:14:41;;;;;;;4.60;2.65;;;2.30;99.90;;;;;;5043996;28;20207;-47
2024/01/19 05:17:09;;;;;;;5.00;2.78;;;2.30;99.90;;;;;;5047177;28;20196;-46
2024/01/19 05:19:40;;;;;;;5.50;3.85;;;2.30;99.90;;;;;;5021343;28;20193;-46
2024/01/19 05:22:09;;;;;;;5.15;3.28;;;2.30;99.90;;;;;;5041329;28;20221;-48
2024/01/19 05:24:41;;;;;;;5.88;3.50;;;2.30;99.90;;;;;;5039448;28;20197;-44
2024/01/19 05:27:10;;;;;;;5.40;3.60;;;2.30;99.90;;;;;;5039649;28;20289;-47
2024/01/19 05:29:38;;;;;;;5.13;2.97;;;2.30;99.90;;;;;;5043408;28;20209;-45
2024/01/19 05:32:07;;;;;;;4.65;3.28;;;2.30;99.90;;;;;;5042031;28;20317;-45
2024/01/19 05:34:35;;;;;;;5.47;3.08;;;2.30;99.90;;;;;;5049483;28;20198;-46
2024/01/19 05:37:05;;;;;;;4.80;2.80;;;2.30;99.90;;;;;;5044465;28;20203;-46
2024/01/19 05:39:33;;;;;;;3.95;2.60;;;2.30;99.90;;;;;;5046165;28;20611;-45
2024/01/19 05:42:01;;;;;;;6.47;3.65;;;2.30;99.90;;;;;;5042453;28;20217;-46
2024/01/19 05:44:29;;;;;;;4.93;2.90;;;2.30;99.90;;;;;;5040957;28;20291;-47
2024/01/19 05:46:59;;;;;;;4.93;3.22;;;2.30;99.90;;;;;;5045447;28;20196;-45
2024/01/19 05:49:28;;;;;;;7.50;3.85;;;2.30;99.90;;;;;;5046532;28;20217;-45
2024/01/19 05:51:57;;;;;;;9.75;4.45;;;2.30;99.90;;;;;;5037043;28;20307;-46
2024/01/19 05:54:27;;;;;;;4.95;3.72;;;2.30;99.90;;;;;;5039795;28;20221;-45
2024/01/19 05:56:55;;;;;;;6.35;2.85;;;2.30;99.90;;;;;;5035897;28;20202;-46
2024/01/19 05:59:25;;;;;;;6.07;3.78;;;2.30;99.90;;;;;;5045639;28;20213;-49
2024/01/19 06:01:53;;;;;;;5.00;3.38;;;2.30;99.90;;;;;;5032964;28;20206;-45
2024/01/19 06:04:23;;;;;;;5.55;3.22;;;2.20;99.90;;;;;;5034214;28;20598;-46
2024/01/19 06:06:51;;;;;;;4.18;2.92;;;2.20;99.90;;;;;;5034879;28;20201;-44
2024/01/19 06:09:19;;;;;;;6.45;3.72;;;2.20;99.90;;;;;;5040321;28;20213;-44
2024/01/19 06:11:51;;;;;;;4.00;3.00;;;2.20;99.90;;;;;;5033454;28;20225;-45
2024/01/19 06:14:20;;;;;;;6.25;3.38;;;2.20;99.90;;;;;;5033711;28;20243;-47
2024/01/19 06:16:48;;;;;;;4.97;3.33;;;2.20;99.90;;;;;;5036110;28;20198;-47
2024/01/19 06:19:17;;;;;;;4.40;2.92;;;2.30;99.90;;;;;;5039290;28;20228;-46
2024/01/19 06:21:45;;;;;;;4.20;2.80;;;2.20;99.90;;;;;;5050277;28;20216;-44
2024/01/19 06:24:15;;;;;;;5.75;3.50;;;2.30;99.90;;;;;;5035129;28;20291;-44
2024/01/19 06:26:45;;;;;;;5.47;3.55;;;2.20;99.90;;;;;;5039123;28;20268;-45
2024/01/19 06:29:15;;;;;;;7.40;3.08;;;2.30;99.90;;;;;;5038953;28;20220;-45
2024/01/19 06:31:44;;;;;;;5.45;3.50;;;2.30;99.90;;;;;;5044284;28;20303;-45
2024/01/19 06:34:13;;;;;;;5.45;3.45;;;2.30;99.90;;;;;;5037918;28;20235;-48
2024/01/19 06:36:44;;;;;;;4.97;3.25;;;2.20;99.90;;;;;;5023772;28;20189;-45
2024/01/19 06:39:13;;;;;;;4.95;3.22;;;2.20;99.90;;;;;;5040176;28;20247;-45
2024/01/19 06:41:43;;;;;;;3.85;2.65;;;2.30;99.90;;;;;;5036125;28;20217;-45
2024/01/19 06:44:12;;;;;;;5.70;3.85;;;2.30;99.90;;;;;;5041520;28;20712;-45
2024/01/19 06:46:46;;;;;;;4.45;3.22;;;2.30;99.90;;;;;;5041125;28;20205;-46
2024/01/19 06:49:15;;;;;;;4.68;2.70;;;2.30;99.90;;;;;;5042938;28;20220;-44
2024/01/19 06:51:43;;;;;;;4.78;3.25;;;2.30;99.90;;;;;;5050310;28;20247;-43
2024/01/19 06:54:12;;;;;;;4.85;3.67;;;2.30;99.90;;;;;;5052951;28;20228;-43
2024/01/19 06:56:40;;;;;;;4.80;2.92;;;2.20;99.90;;;;;;5045958;28;20197;-43
2024/01/19 06:59:09;;;;;;;6.32;4.28;;;2.20;99.90;;;;;;5049253;28;20216;-45
2024/01/19 07:01:38;;;;;;;4.88;2.95;;;2.20;99.90;;;;;;5047725;28;20213;-45
2024/01/19 07:04:08;;;;;;;5.65;3.60;;;2.20;99.90;;;;;;5047352;28;20223;-44
2024/01/19 07:06:37;;;;;;;3.75;2.30;;;2.20;99.90;;;;;;5044221;28;20197;-44
2024/01/19 07:09:06;;;;;;;5.97;3.17;;;2.20;99.90;;;;;;5037810;28;20319;-44
2024/01/19 07:11:34;;;;;;;6.05;4.40;;;2.20;99.90;;;;;;5049004;28;20221;-43
2024/01/19 07:14:03;;;;;;;5.82;3.10;;;2.20;99.90;;;;;;5045564;28;20221;-44
2024/01/19 07:16:31;;;;;;;5.10;3.22;;;2.20;99.90;;;;;;5039949;28;20201;-44
2024/01/19 07:18:59;;;;;;;4.38;3.53;;;2.20;99.90;;;;;;5037749;28;20234;-43
2024/01/19 07:21:29;;;;;;;5.65;3.58;;;2.20;99.90;;;;;;5040332;28;20468;-44
2024/01/19 07:23:59;;;;;;;6.18;3.53;;;2.20;99.90;;;;;;5017202;28;20221;-44
2024/01/19 07:26:28;;;;;;;5.70;3.55;;;2.20;99.90;;;;;;5036996;28;20198;-43
2024/01/19 07:28:56;;;;;;;9.75;5.70;;;2.20;99.90;;;;;;5046414;28;20255;-44
2024/01/19 07:31:25;;;;;;;4.93;3.78;;;2.20;99.90;;;;;;5040791;28;20601;-43
2024/01/19 07:33:53;;;;;;;7.00;4.25;;;2.20;99.90;;;;;;5042766;28;20220;-43
2024/01/19 07:36:22;;;;;;;6.95;4.32;;;2.20;99.90;;;;;;5034873;28;20224;-43
2024/01/19 07:38:51;;;;;;;4.60;3.72;;;2.20;99.90;;;;;;5043423;28;20285;-43
2024/01/19 07:41:20;;;;;;;5.70;3.60;;;2.20;99.90;;;;;;5038927;28;20228;-43
2024/01/19 07:43:48;;;;;;;5.88;4.30;;;2.20;99.90;;;;;;5031916;28;20655;-44
2024/01/19 07:46:16;;;;;;;4.68;3.47;;;2.20;99.90;;;;;;5044765;28;20669;-43
2024/01/19 07:48:44;;;;;;;3.90;2.40;;;2.20;99.90;;;;;;5036772;28;20753;-43
2024/01/19 07:51:13;;;;;;;5.60;3.97;;;2.20;99.90;;;;;;5043437;28;20311;-43
2024/01/19 07:53:41;;;;;;;5.30;3.20;;;2.30;99.90;;;;;;5032326;28;20245;-43
2024/01/19 07:56:10;;;;;;;4.80;2.80;;;2.20;99.90;;;;;;5039836;28;20197;-43
2024/01/19 07:58:38;;;;;;;4.90;2.95;;;2.30;99.90;;;;;;5038968;28;20228;-43
2024/01/19 08:01:06;;;;;;;5.80;3.45;;;2.20;99.90;;;;;;5038109;28;20254;-43
2024/01/19 08:03:35;;;;;;;6.07;4.00;;;2.20;99.90;;;;;;5032382;28;20320;-44
2024/01/19 08:06:03;;;;;;;5.25;3.20;;;2.20;99.90;;;;;;5037691;28;20208;-43
2024/01/19 08:08:31;;;;;;;9.18;3.67;;;2.20;99.90;;;;;;5039194;28;20625;-43
2024/01/19 08:10:59;;;;;;;9.10;4.70;;;2.20;99.90;;;;;;5039419;28;20217;-44
2024/01/19 08:13:29;;;;;;;6.07;3.22;;;2.20;99.90;;;;;;5034061;28;20769;-44
2024/01/19 08:15:58;;;;;;;5.60;3.05;;;2.20;99.90;;;;;;5038174;28;20264;-44
2024/01/19 08:18:26;;;;;;;4.55;3.30;;;2.20;99.90;;;;;;5039216;28;20221;-43
2024/01/19 08:20:54;;;;;;;5.97;3.85;;;2.20;99.90;;;;;;5041169;28;20275;-43
2024/01/19 08:23:23;;;;;;;6.05;3.25;;;2.20;99.90;;;;;;5035383;28;20228;-44
2024/01/19 08:25:51;;;;;;;19.45;11.20;;;2.30;99.90;;;;;;5043846;28;20839;-44
2024/01/19 08:28:19;;;;;;;25.02;12.90;;;2.20;99.90;;;;;;5036498;28;20224;-43
2024/01/19 08:30:48;;;;;;;20.67;12.07;;;2.10;99.90;;;;;;5041795;28;20202;-43
2024/01/19 08:33:16;;;;;;;18.05;11.48;;;2.10;99.90;;;;;;5041878;28;20224;-44
2024/01/19 08:35:44;;;;;;;21.67;11.55;;;2.00;99.90;;;;;;5039786;28;20197;-44
2024/01/19 08:38:14;;;;;;;19.55;11.95;;;2.00;99.90;;;;;;5040790;28;20220;-43
2024/01/19 08:40:42;;;;;;;23.08;14.38;;;2.00;99.90;;;;;;5038756;28;20201;-44
2024/01/19 08:43:10;;;;;;;20.10;13.35;;;1.90;99.90;;;;;;5035185;28;20220;-44
2024/01/19 08:45:38;;;;;;;19.38;12.23;;;1.90;99.90;;;;;;5041353;28;20285;-43
2024/01/19 08:48:08;;;;;;;17.75;11.20;;;1.90;99.90;;;;;;5043621;28;20228;-43
2024/01/19 08:50:36;;;;;;;18.15;11.70;;;1.90;99.90;;;;;;5038171;28;20204;-43
2024/01/19 08:53:06;;;;;;;17.15;11.07;;;2.00;99.90;;;;;;5041401;28;20624;-44
2024/01/19 08:55:34;;;;;;;16.40;9.85;;;2.00;99.90;;;;;;5037007;28;20335;-44
2024/01/19 08:58:03;;;;;;;17.08;10.57;;;2.00;99.90;;;;;;5037990;28;20223;-43
2024/01/19 09:00:31;;;;;;;16.13;10.60;;;2.00;99.90;;;;;;5039787;28;20239;-44
2024/01/19 09:02:59;;;;;;;19.50;10.65;;;2.10;99.90;;;;;;5042335;28;20231;-44
2024/01/19 09:05:34;;;;;;;16.42;9.77;;;2.10;99.90;;;;;;5035942;28;20198;-43
2024/01/19 09:08:03;;;;;;;16.00;10.35;;;2.10;99.90;;;;;;5039559;28;20221;-45
2024/01/19 09:10:31;;;;;;;14.20;10.23;;;2.10;99.90;;;;;;5037444;28;20201;-43
2024/01/19 09:12:59;;;;;;;15.77;9.70;;;2.10;99.90;;;;;;5036497;28;20726;-44
2024/01/19 09:15:27;;;;;;;18.35;10.52;;;2.10;99.90;;;;;;5039687;28;20198;-43
2024/01/19 09:17:56;;;;;;;13.38;9.55;;;2.20;99.90;;;;;;5040120;28;20219;-43
2024/01/19 09:20:27;;;;;;;18.27;10.15;;;2.10;99.90;;;;;;5042352;28;20198;-44
2024/01/19 09:22:57;;;;;;;18.00;9.80;;;2.20;99.90;;;;;;5042384;28;20239;-43
2024/01/19 09:25:25;;;;;;;15.32;9.23;;;2.20;99.90;;;;;;5036279;28;20270;-43
2024/01/19 09:27:53;;;;;;;15.30;10.90;;;2.20;99.90;;;;;;5047552;28;20321;-43
2024/01/19 09:30:22;;;;;;;12.77;8.93;;;2.20;99.90;;;;;;5043353;28;20201;-43
2024/01/19 09:32:50;;;;;;;15.38;8.90;;;2.20;99.90;;;;;;5038843;28;20239;-43
2024/01/19 09:35:18;;;;;;;15.98;8.77;;;2.30;99.90;;;;;;5035448;28;20562;-43
2024/01/19 09:37:46;;;;;;;14.88;9.15;;;2.30;99.90;;;;;;5041623;28;20304;-44
2024/01/19 09:40:19;;;;;;;15.18;9.60;;;2.30;99.90;;;;;;5038305;28;20200;-43
2024/01/19 09:42:54;;;;;;;13.45;9.30;;;2.30;99.90;;;;;;5035062;28;20606;-43
2024/01/19 09:45:24;;;;;;;17.63;9.07;;;2.30;99.90;;;;;;5038820;28;20212;-44
2024/01/19 09:48:09;;;;;;;15.43;9.07;;;2.30;99.90;;;;;;5035000;28;20606;-43
2024/01/19 09:50:39;;;;;;;16.75;8.55;;;2.30;99.90;;;;;;5035515;28;20678;-44
2024/01/19 09:53:21;;;;;;;13.68;9.13;;;2.30;99.90;;;;;;5022661;28;20239;-45
2024/01/19 09:55:50;;;;;;;12.82;8.27;;;2.30;99.90;;;;;;5037953;28;20199;-43
2024/01/19 09:58:21;;;;;;;13.85;8.85;;;2.40;99.90;;;;;;5034440;28;20246;-43
2024/01/19 10:00:50;;;;;;;14.82;9.13;;;2.30;99.90;;;;;;5041893;28;20209;-45
2024/01/19 10:03:19;;;;;;;12.13;8.13;;;2.30;99.90;;;;;;5034345;28;20319;-43
2024/01/19 10:05:51;;;;;;;13.43;8.15;;;2.40;99.90;;;;;;5046226;28;20219;-43
2024/01/19 10:08:19;;;;;;;13.93;8.70;;;2.40;99.90;;;;;;5039677;28;20236;-43
2024/01/19 10:10:50;;;;;;;15.00;8.48;;;2.40;99.90;;;;;;5045803;28;20245;-43
2024/01/19 10:13:19;;;;;;;15.07;8.15;;;2.40;99.90;;;;;;5040462;28;20228;-43
2024/01/19 10:15:48;;;;;;;14.88;8.80;;;2.40;99.90;;;;;;5039881;28;20247;-44
2024/01/19 10:18:17;;;;;;;14.30;9.45;;;2.50;99.90;;;;;;5042838;28;20221;-44
2024/01/19 10:20:51;;;;;;;10.50;8.10;;;2.50;99.90;;;;;;5039111;28;20201;-43
2024/01/19 10:23:21;;;;;;;11.60;7.55;;;2.40;99.90;;;;;;5043668;28;20228;-43
2024/01/19 10:25:49;;;;;;;13.02;6.85;;;2.50;99.90;;;;;;5036856;28;20204;-43
2024/01/19 10:28:33;;;;;;;15.77;8.02;;;2.50;99.90;;;;;;5040506;28;20216;-43
2024/01/19 10:31:15;;;;;;;10.48;7.55;;;2.50;99.90;;;;;;5042292;28;20223;-43
2024/01/19 10:33:51;;;;;;;10.93;7.88;;;2.50;99.90;;;;;;5039491;28;20233;-43
2024/01/19 10:36:20;;;;;;;13.55;7.32;;;2.50;99.90;;;;;;5037074;28;20678;-43
2024/01/19 10:38:48;;;;;;;12.50;7.22;;;2.50;99.90;;;;;;5041750;28;20222;-44
2024/01/19 10:41:17;;;;;;;10.25;7.05;;;2.50;99.90;;;;;;5038425;28;20235;-44
2024/01/19 10:43:47;;;;;;;12.45;8.35;;;2.50;99.90;;;;;;5040303;28;20253;-43
2024/01/19 10:46:23;;;;;;;11.43;7.80;;;2.40;99.90;;;;;;5041271;28;20196;-43
2024/01/19 10:48:52;;;;;;;14.48;8.50;;;2.50;99.90;;;;;;5034334;28;20710;-44
2024/01/19 10:51:21;;;;;;;10.38;6.70;;;2.50;99.90;;;;;;5041483;28;20220;-43
2024/01/19 10:53:50;;;;;;;10.23;6.60;;;2.50;99.90;;;;;;5039703;28;20294;-43
2024/01/19 10:56:20;;;;;;;10.48;7.10;;;2.50;99.90;;;;;;5035392;28;20201;-43
2024/01/19 10:58:50;;;;;;;15.95;8.27;;;2.50;99.90;;;;;;5026509;28;20220;-43
2024/01/19 11:01:19;;;;;;;10.65;8.63;;;2.40;99.90;;;;;;5039429;28;20208;-44
2024/01/19 11:03:48;;;;;;;11.10;7.47;;;2.40;99.90;;;;;;5034315;28;20260;-44
2024/01/19 11:06:17;;;;;;;13.18;7.00;;;2.40;99.90;;;;;;5038265;28;20197;-44
2024/01/19 11:08:46;;;;;;;13.07;8.00;;;2.40;99.90;;;;;;5034465;28;20278;-43
2024/01/19 11:11:14;;;;;;;9.75;6.88;;;2.40;99.90;;;;;;5037653;28;20939;-43
2024/01/19 11:13:46;;;;;;;11.60;8.32;;;2.40;99.90;;;;;;5039687;28;20681;-43
2024/01/19 11:16:21;;;;;;;11.45;7.50;;;2.40;99.90;;;;;;5039268;28;20247;-43
2024/01/19 11:18:50;;;;;;;14.32;7.15;;;2.40;99.90;;;;;;5044033;28;20247;-43
2024/01/19 11:21:18;;;;;;;11.30;6.80;;;2.40;99.90;;;;;;5039705;28;20590;-43
2024/01/19 11:23:47;;;;;;;11.50;7.20;;;2.40;99.90;;;;;;5038892;28;20212;-43
2024/01/19 11:26:24;;;;;;;11.55;7.30;;;2.40;99.90;;;;;;5038299;28;20657;-43
2024/01/19 11:28:57;;;;;;;9.15;6.22;;;2.40;99.90;;;;;;5038276;28;20232;-43
2024/01/19 11:31:30;;;;;;;11.18;6.55;;;2.40;99.90;;;;;;5041094;28;20220;-43
2024/01/19 11:33:58;;;;;;;14.25;8.75;;;2.40;99.90;;;;;;5037835;28;20220;-43
2024/01/19 11:36:49;;;;;;;9.68;6.78;;;2.40;99.90;;;;;;5025319;28;20590;-43
2024/01/19 11:39:40;;;;;;;9.75;6.78;;;2.40;99.90;;;;;;5038659;28;20213;-43
2024/01/19 11:42:09;;;;;;;11.90;7.20;;;2.40;99.90;;;;;;5038451;28;20223;-45
2024/01/19 11:44:48;;;;;;;8.98;6.38;;;2.40;99.90;;;;;;5037688;28;20220;-45
2024/01/19 11:47:42;;;;;;;11.10;6.80;;;2.40;99.90;;;;;;5041006;28;20196;-47
2024/01/19 11:50:12;;;;;;;10.65;6.93;;;2.40;99.90;;;;;;5040308;28;20596;-46
2024/01/19 11:52:43;;;;;;;9.05;6.10;;;2.40;99.90;;;;;;5018747;28;20666;-46
2024/01/19 11:55:37;;;;;;;9.60;6.40;;;2.40;99.90;;;;;;5039286;28;20664;-45
2024/01/19 11:58:31;;;;;;;12.60;6.80;;;2.40;99.90;;;;;;5042832;28;20242;-46
2024/01/19 12:01:00;;;;;;;10.30;7.10;;;2.40;99.90;;;;;;5040763;28;20223;-44
2024/01/19 12:03:31;;;;;;;10.07;6.03;;;2.40;99.90;;;;;;5027764;28;20212;-47
2024/01/19 12:06:01;;;;;;;10.73;6.53;;;2.40;99.90;;;;;;5034893;28;20572;-45
2024/01/19 12:08:30;;;;;;;9.70;6.15;;;2.40;99.90;;;;;;5036582;28;20565;-47
2024/01/19 12:11:16;;;;;;;9.02;5.47;;;2.40;99.90;;;;;;5039810;28;20213;-45
2024/01/19 12:13:48;;;;;;;10.93;6.20;;;2.40;99.90;;;;;;5034069;28;20669;-44
2024/01/19 12:16:28;;;;;;;8.77;5.55;;;2.40;99.90;;;;;;5039995;28;20204;-45
2024/01/19 12:18:58;;;;;;;7.35;4.95;;;2.40;99.90;;;;;;5035263;28;20224;-44
2024/01/19 12:21:27;;;;;;;8.32;5.40;;;2.40;99.90;;;;;;5055028;28;20216;-43
2024/01/19 12:23:57;;;;;;;7.65;4.95;;;2.50;99.90;;;;;;5050332;28;20221;-43
2024/01/19 12:26:26;;;;;;;8.35;5.75;;;2.50;99.90;;;;;;5045832;28;20628;-44
2024/01/19 12:28:55;;;;;;;9.40;5.15;;;2.50;99.90;;;;;;5045290;28;20228;-43
2024/01/19 12:31:24;;;;;;;7.90;5.28;;;2.40;99.90;;;;;;5046223;28;20244;-43
2024/01/19 12:33:53;;;;;;;9.15;6.30;;;2.40;99.90;;;;;;5041748;28;20703;-43
2024/01/19 12:36:27;;;;;;;6.25;4.93;;;2.50;99.90;;;;;;5050720;28;20266;-43
2024/01/19 12:39:10;;;;;;;12.27;5.32;;;2.50;99.90;;;;;;5044505;28;20755;-43
2024/01/19 12:41:40;;;;;;;6.13;4.25;;;2.50;99.90;;;;;;5043676;28;20376;-43
2024/01/19 12:44:08;;;;;;;10.05;6.03;;;2.50;99.90;;;;;;5038830;28;20213;-43
2024/01/19 12:46:36;;;;;;;10.13;6.28;;;2.50;99.90;;;;;;5041954;28;20205;-44
2024/01/19 12:49:05;;;;;;;7.75;4.80;;;2.50;99.90;;;;;;5038105;28;20220;-44
2024/01/19 12:51:34;;;;;;;8.30;5.22;;;2.50;99.90;;;;;;5039467;28;20213;-43
2024/01/19 12:54:03;;;;;;;8.30;5.35;;;2.50;99.90;;;;;;5039120;28;20225;-43
2024/01/19 12:56:32;;;;;;;9.45;5.53;;;2.50;99.90;;;;;;5042594;28;20194;-43
2024/01/19 12:59:08;;;;;;;9.40;4.65;;;2.50;99.90;;;;;;5041324;28;20652;-44
2024/01/19 13:01:39;;;;;;;8.27;5.38;;;2.50;99.90;;;;;;5038754;28;20241;-42
2024/01/19 13:04:08;;;;;;;6.78;4.40;;;2.50;99.90;;;;;;5038772;28;20205;-43
2024/01/19 13:06:42;;;;;;;7.13;5.25;;;2.50;99.90;;;;;;5046373;28;20217;-43